Time;durP1;ratioP1;P1;durP2;ratioP2;P2;SDS_P1;SDS_P2;PMS_P1;PMS_P2;Temp;Humidity;BMP_temperature;BMP_pressure;BME280_temperature;BME280_humidity;BME280_pressure;Samples;Min_cycle;Max_cycle;Signal;HPM_P1;HPM_P2
2021/11/19 00:01:09;;;;;;;15.80;8.60;;;7.70;84.10;;;;;;4910849;29;20864;-41
2021/11/19 00:03:37;;;;;;;12.53;8.03;;;7.70;84.30;;;;;;4910518;29;21011;-42
2021/11/19 00:06:03;;;;;;;9.70;8.07;;;7.70;84.40;;;;;;4892140;29;20503;-42
2021/11/19 00:08:31;;;;;;;12.07;8.80;;;7.70;84.40;;;;;;4911787;29;21063;-42
2021/11/19 00:11:02;;;;;;;18.23;8.90;;;7.70;84.60;;;;;;4894248;29;20469;-42
2021/11/19 00:13:30;;;;;;;14.37;8.53;;;7.70;84.80;;;;;;4910134;29;21619;-42
2021/11/19 00:15:57;;;;;;;11.87;8.50;;;7.70;84.70;;;;;;4894546;29;20472;-41
2021/11/19 00:18:25;;;;;;;14.20;8.57;;;7.70;84.80;;;;;;4902590;29;20468;-41
2021/11/19 00:20:53;;;;;;;12.70;7.80;;;7.70;84.70;;;;;;4901152;29;20475;-41
2021/11/19 00:23:21;;;;;;;15.80;8.03;;;7.70;84.90;;;;;;4908338;29;20499;-41
2021/11/19 00:25:48;;;;;;;14.47;8.40;;;7.80;84.70;;;;;;4905854;29;20476;-41
2021/11/19 00:28:17;;;;;;;20.07;9.30;;;7.80;84.50;;;;;;4909418;29;20464;-41
2021/11/19 00:30:44;;;;;;;11.20;7.10;;;7.90;84.30;;;;;;4908822;29;21960;-41
2021/11/19 00:33:12;;;;;;;17.33;7.57;;;7.90;84.30;;;;;;4910790;29;20488;-41
2021/11/19 00:35:42;;;;;;;18.10;9.47;;;7.90;84.50;;;;;;4909485;29;20540;-41
2021/11/19 00:38:11;;;;;;;9.33;7.20;;;7.90;84.30;;;;;;4909511;29;20453;-41
2021/11/19 00:40:42;;;;;;;11.83;7.53;;;8.00;84.00;;;;;;4911603;29;20615;-41
2021/11/19 00:43:10;;;;;;;14.90;7.37;;;8.00;84.00;;;;;;4908073;29;20449;-41
2021/11/19 00:45:37;;;;;;;9.37;6.80;;;8.00;84.00;;;;;;4909449;29;20465;-41
2021/11/19 00:48:06;;;;;;;14.47;7.23;;;7.90;84.20;;;;;;4910798;29;20536;-41
2021/11/19 00:50:39;;;;;;;14.33;7.23;;;8.00;84.30;;;;;;4893755;29;20468;-41
2021/11/19 00:53:07;;;;;;;14.43;8.03;;;8.00;84.40;;;;;;4892021;29;20500;-41
2021/11/19 00:55:35;;;;;;;16.97;7.93;;;8.00;84.50;;;;;;4895526;29;20473;-41
2021/11/19 00:58:03;;;;;;;12.73;7.37;;;8.00;84.30;;;;;;4911310;29;20453;-42
2021/11/19 01:00:34;;;;;;;12.57;8.40;;;8.00;84.60;;;;;;4909969;29;20459;-42
2021/11/19 01:03:01;;;;;;;15.40;9.17;;;8.00;84.70;;;;;;4909234;29;20495;-42
2021/11/19 01:05:28;;;;;;;14.07;7.50;;;8.00;84.50;;;;;;4899737;29;20459;-41
2021/11/19 01:07:55;;;;;;;12.03;6.60;;;8.10;84.50;;;;;;4911571;29;20465;-41
2021/11/19 01:10:25;;;;;;;11.70;6.33;;;8.10;84.50;;;;;;4899330;29;20948;-41
2021/11/19 01:12:52;;;;;;;16.70;7.33;;;8.10;84.70;;;;;;4911143;29;20497;-41
2021/11/19 01:15:32;;;;;;;12.90;7.30;;;8.10;84.60;;;;;;4911479;29;20892;-41
2021/11/19 01:18:07;;;;;;;9.67;6.40;;;8.10;84.70;;;;;;4896950;29;20879;-41
2021/11/19 01:20:49;;;;;;;11.90;7.63;;;8.10;84.60;;;;;;4909167;29;20806;-41
2021/11/19 01:23:20;;;;;;;10.80;7.27;;;8.10;84.80;;;;;;4910531;29;20559;-41
2021/11/19 01:25:57;;;;;;;11.80;6.90;;;8.10;85.00;;;;;;4909479;29;20556;-42
2021/11/19 01:28:24;;;;;;;10.47;7.10;;;8.10;84.90;;;;;;4908941;29;20972;-41
2021/11/19 01:31:05;;;;;;;10.30;8.27;;;8.10;84.50;;;;;;4910064;29;20460;-41
2021/11/19 01:33:33;;;;;;;13.20;6.30;;;8.10;84.70;;;;;;4909600;29;20519;-41
2021/11/19 01:35:59;;;;;;;10.70;7.23;;;8.10;84.60;;;;;;4909161;29;20468;-41
2021/11/19 01:38:28;;;;;;;8.17;6.33;;;8.10;84.50;;;;;;4909781;29;20890;-41
2021/11/19 01:41:00;;;;;;;9.50;6.83;;;8.10;84.40;;;;;;4911287;29;20461;-41
2021/11/19 01:43:28;;;;;;;10.70;6.13;;;8.10;84.50;;;;;;4910406;29;20463;-41
2021/11/19 01:45:58;;;;;;;11.97;7.30;;;8.10;84.80;;;;;;4909337;29;20461;-41
2021/11/19 01:48:29;;;;;;;11.17;6.27;;;8.10;84.70;;;;;;4911525;29;20463;-41
2021/11/19 01:51:00;;;;;;;15.17;7.83;;;8.10;84.90;;;;;;4909973;29;20462;-41
2021/11/19 01:53:53;;;;;;;9.97;5.90;;;8.10;84.90;;;;;;4911161;29;20500;-42
2021/11/19 01:56:26;;;;;;;9.03;6.03;;;8.10;84.90;;;;;;4900591;29;20483;-42
2021/11/19 01:59:01;;;;;;;12.43;6.67;;;8.10;85.00;;;;;;4913070;29;20960;-42
2021/11/19 02:01:44;;;;;;;13.57;6.53;;;8.10;85.20;;;;;;4912066;29;20881;-42
2021/11/19 02:04:15;;;;;;;8.97;6.33;;;8.20;85.20;;;;;;4896701;29;20476;-41
2021/11/19 02:07:08;;;;;;;7.97;7.13;;;8.10;85.30;;;;;;4913795;29;20567;-41
2021/11/19 02:10:01;;;;;;;11.30;7.33;;;8.10;85.30;;;;;;4912813;29;20480;-41
2021/11/19 02:12:28;;;;;;;13.63;7.40;;;8.20;85.40;;;;;;4913029;29;20492;-42
2021/11/19 02:14:58;;;;;;;10.07;6.10;;;8.20;85.50;;;;;;4907957;29;20710;-42
2021/11/19 02:17:24;;;;;;;10.43;5.57;;;8.20;85.50;;;;;;4910327;29;20857;-41
2021/11/19 02:19:58;;;;;;;12.87;6.57;;;8.20;85.50;;;;;;4897495;29;20468;-41
2021/11/19 02:22:46;;;;;;;13.10;7.33;;;8.30;85.50;;;;;;4903796;29;20854;-41
2021/11/19 02:25:30;;;;;;;11.07;7.50;;;8.30;85.40;;;;;;4906520;29;20468;-41
2021/11/19 02:28:16;;;;;;;10.20;5.87;;;8.30;85.50;;;;;;4907761;29;20469;-41
2021/11/19 02:30:45;;;;;;;10.97;5.87;;;8.30;85.60;;;;;;4904310;29;20495;-41
2021/11/19 02:33:13;;;;;;;10.83;6.40;;;8.30;85.60;;;;;;4904107;29;21067;-41
2021/11/19 02:35:52;;;;;;;12.60;6.90;;;8.40;85.60;;;;;;4903829;29;20472;-41
2021/11/19 02:38:23;;;;;;;13.80;7.70;;;8.40;85.50;;;;;;4904667;29;20923;-41
2021/11/19 02:40:50;;;;;;;9.90;5.90;;;8.40;85.40;;;;;;4889802;29;20461;-41
2021/11/19 02:43:23;;;;;;;10.77;6.40;;;8.40;85.40;;;;;;4907385;29;20464;-41
2021/11/19 02:45:52;;;;;;;12.20;5.90;;;8.40;85.30;;;;;;4901781;29;20474;-41
2021/11/19 02:48:26;;;;;;;10.60;7.30;;;8.40;85.20;;;;;;4906221;29;20491;-41
2021/11/19 02:50:55;;;;;;;10.13;6.60;;;8.40;85.20;;;;;;4905291;29;20473;-41
2021/11/19 02:53:23;;;;;;;16.30;8.20;;;8.40;85.20;;;;;;4903173;29;20501;-41
2021/11/19 02:55:53;;;;;;;11.87;6.80;;;8.50;85.10;;;;;;4903184;29;20484;-41
2021/11/19 02:58:28;;;;;;;12.50;5.63;;;8.50;85.10;;;;;;4907990;29;20461;-41
2021/11/19 03:01:20;;;;;;;11.13;6.70;;;8.50;85.00;;;;;;4903404;29;20468;-41
2021/11/19 03:04:06;;;;;;;5.43;4.80;;;8.50;84.90;;;;;;4904925;29;20480;-41
2021/11/19 03:06:45;;;;;;;11.50;6.73;;;8.50;84.90;;;;;;4908234;29;20514;-42
2021/11/19 03:09:15;;;;;;;8.10;5.87;;;8.50;85.00;;;;;;4911148;29;20461;-41
2021/11/19 03:11:43;;;;;;;11.37;6.60;;;8.50;85.10;;;;;;4892046;29;21296;-41
2021/11/19 03:14:11;;;;;;;11.00;7.00;;;8.50;85.20;;;;;;4911625;29;20868;-41
2021/11/19 03:16:38;;;;;;;10.43;5.90;;;8.50;85.30;;;;;;4897258;29;20464;-41
2021/11/19 03:19:07;;;;;;;12.70;5.70;;;8.50;85.40;;;;;;4893687;29;20461;-41
2021/11/19 03:21:35;;;;;;;8.00;6.20;;;8.50;85.30;;;;;;4879204;29;20463;-42
2021/11/19 03:24:04;;;;;;;14.30;6.30;;;8.50;85.40;;;;;;4912667;29;20471;-42
2021/11/19 03:26:33;;;;;;;10.20;6.37;;;8.50;85.40;;;;;;4910989;29;20472;-42
2021/11/19 03:29:03;;;;;;;13.87;6.83;;;8.50;85.50;;;;;;4912051;29;20540;-42
2021/11/19 03:31:31;;;;;;;8.23;6.10;;;8.50;85.50;;;;;;4911678;29;20461;-42
2021/11/19 03:33:58;;;;;;;10.27;6.50;;;8.50;85.60;;;;;;4912315;29;20500;-42
2021/11/19 03:36:26;;;;;;;10.10;6.20;;;8.50;85.60;;;;;;4910993;29;20588;-42
2021/11/19 03:38:55;;;;;;;11.70;5.93;;;8.50;85.80;;;;;;4912651;29;20900;-42
2021/11/19 03:41:26;;;;;;;7.53;5.47;;;8.50;85.90;;;;;;4912058;29;20464;-42
2021/11/19 03:43:58;;;;;;;11.70;5.30;;;8.60;85.80;;;;;;4896269;29;20467;-42
2021/11/19 03:46:30;;;;;;;11.70;5.23;;;8.60;85.70;;;;;;4911602;29;20457;-42
2021/11/19 03:48:57;;;;;;;9.20;5.27;;;8.60;85.90;;;;;;4898480;29;20960;-42
2021/11/19 03:51:34;;;;;;;5.57;4.20;;;8.60;85.90;;;;;;4896396;29;20465;-42
2021/11/19 03:54:04;;;;;;;5.90;4.13;;;8.70;85.70;;;;;;4909939;29;20492;-42
2021/11/19 03:56:31;;;;;;;7.47;5.17;;;8.70;85.80;;;;;;4911172;29;20485;-43
2021/11/19 03:58:57;;;;;;;8.20;5.53;;;8.60;85.90;;;;;;4894051;29;20837;-43
2021/11/19 04:01:33;;;;;;;6.70;4.80;;;8.60;86.00;;;;;;4911442;29;20453;-43
2021/11/19 04:04:03;;;;;;;7.27;5.13;;;8.60;86.00;;;;;;4895511;29;20831;-43
2021/11/19 04:06:30;;;;;;;6.80;4.10;;;8.70;86.10;;;;;;4895691;29;20587;-43
2021/11/19 04:08:57;;;;;;;4.33;3.63;;;8.70;86.00;;;;;;4911102;29;20477;-43
2021/11/19 04:11:25;;;;;;;7.83;4.40;;;8.70;85.90;;;;;;4895255;29;20515;-43
2021/11/19 04:13:53;;;;;;;8.47;3.60;;;8.70;86.10;;;;;;4912090;29;20591;-43
2021/11/19 04:16:26;;;;;;;7.70;4.83;;;8.70;86.10;;;;;;4894411;29;20456;-44
2021/11/19 04:18:53;;;;;;;4.10;3.70;;;8.70;86.20;;;;;;4910425;29;20465;-44
2021/11/19 04:21:21;;;;;;;5.13;4.17;;;8.70;86.20;;;;;;4909077;29;20468;-43
2021/11/19 04:23:51;;;;;;;12.00;5.27;;;8.70;86.20;;;;;;4909175;29;20513;-43
2021/11/19 04:26:20;;;;;;;17.30;5.10;;;8.70;86.10;;;;;;4911726;29;20461;-43
2021/11/19 04:28:47;;;;;;;7.37;5.20;;;8.80;86.10;;;;;;4895978;29;20475;-43
2021/11/19 04:31:18;;;;;;;8.00;5.60;;;8.80;85.90;;;;;;4912078;29;20465;-43
2021/11/19 04:33:47;;;;;;;9.67;5.23;;;8.80;86.00;;;;;;4911340;29;21115;-43
2021/11/19 04:36:16;;;;;;;10.37;7.23;;;8.80;85.90;;;;;;4908868;29;20465;-44
2021/11/19 04:38:43;;;;;;;8.70;6.03;;;8.80;86.00;;;;;;4910402;29;20472;-44
2021/11/19 04:41:10;;;;;;;8.27;5.33;;;8.80;85.90;;;;;;4897112;29;20455;-44
2021/11/19 04:43:37;;;;;;;10.20;5.27;;;8.80;86.00;;;;;;4911842;29;20464;-44
2021/11/19 04:46:06;;;;;;;9.00;4.87;;;8.80;86.00;;;;;;4909552;29;20461;-44
2021/11/19 04:48:35;;;;;;;9.90;4.70;;;8.80;85.90;;;;;;4911407;29;20548;-44
2021/11/19 04:51:09;;;;;;;6.70;5.30;;;8.80;85.90;;;;;;4896263;29;20623;-44
2021/11/19 04:53:37;;;;;;;11.47;5.37;;;8.90;85.90;;;;;;4910897;29;20498;-44
2021/11/19 04:56:07;;;;;;;8.13;5.40;;;8.80;85.90;;;;;;4909172;29;20496;-44
2021/11/19 04:58:35;;;;;;;8.27;5.13;;;8.80;86.00;;;;;;4910902;29;20774;-44
2021/11/19 05:01:20;;;;;;;12.73;5.20;;;8.90;85.90;;;;;;4909261;29;20462;-43
2021/11/19 05:03:48;;;;;;;6.13;4.97;;;8.90;85.80;;;;;;4911257;29;20469;-43
2021/11/19 05:06:15;;;;;;;9.90;4.87;;;8.90;85.80;;;;;;4909605;29;20461;-43
2021/11/19 05:08:42;;;;;;;8.77;5.07;;;8.90;85.70;;;;;;4911502;29;20486;-43
2021/11/19 05:11:15;;;;;;;17.93;10.73;;;8.90;85.70;;;;;;4910111;29;20560;-43
2021/11/19 05:13:43;;;;;;;22.57;13.73;;;8.90;85.70;;;;;;4910508;29;20527;-42
2021/11/19 05:16:13;;;;;;;16.60;9.33;;;8.90;85.80;;;;;;4909937;29;20809;-42
2021/11/19 05:18:41;;;;;;;9.27;6.10;;;8.90;85.90;;;;;;4910753;29;20468;-42
2021/11/19 05:21:09;;;;;;;13.90;6.87;;;8.90;86.00;;;;;;4910612;29;20777;-42
2021/11/19 05:23:36;;;;;;;10.00;6.00;;;8.90;85.90;;;;;;4910837;29;20722;-42
2021/11/19 05:26:04;;;;;;;10.00;6.00;;;8.80;86.10;;;;;;4891354;29;20457;-42
2021/11/19 05:28:32;;;;;;;9.90;5.60;;;8.90;85.90;;;;;;4891960;29;21029;-42
2021/11/19 05:30:59;;;;;;;12.83;6.50;;;8.80;86.20;;;;;;4907548;29;20465;-42
2021/11/19 05:33:28;;;;;;;15.97;6.30;;;8.80;86.40;;;;;;4909675;29;21047;-42
2021/11/19 05:35:55;;;;;;;13.63;7.13;;;8.90;86.10;;;;;;4913268;29;20990;-42
2021/11/19 05:38:24;;;;;;;21.73;7.17;;;8.90;86.10;;;;;;4914558;29;20461;-42
2021/11/19 05:40:51;;;;;;;10.17;5.97;;;8.90;86.00;;;;;;4913555;29;20465;-42
2021/11/19 05:43:22;;;;;;;13.93;7.27;;;8.90;86.10;;;;;;4914892;29;20971;-42
2021/11/19 05:45:49;;;;;;;11.53;6.83;;;8.90;86.40;;;;;;4899441;29;20986;-42
2021/11/19 05:48:16;;;;;;;11.97;6.13;;;8.90;86.20;;;;;;4912618;29;20995;-42
2021/11/19 05:50:45;;;;;;;11.47;6.80;;;8.90;86.40;;;;;;4897926;29;20819;-42
2021/11/19 05:53:12;;;;;;;10.10;5.90;;;8.90;86.50;;;;;;4914539;29;20983;-42
2021/11/19 05:55:42;;;;;;;14.13;6.93;;;8.90;86.40;;;;;;4913107;29;20511;-42
2021/11/19 05:58:09;;;;;;;15.10;7.50;;;8.90;86.50;;;;;;4914645;29;21003;-42
2021/11/19 06:00:41;;;;;;;8.53;6.07;;;8.90;86.60;;;;;;4896798;29;20668;-42
2021/11/19 06:03:09;;;;;;;11.40;7.70;;;8.90;86.70;;;;;;4915019;29;20461;-42
2021/11/19 06:05:36;;;;;;;20.03;8.10;;;8.80;86.90;;;;;;4913072;29;20996;-42
2021/11/19 06:08:03;;;;;;;12.93;7.17;;;8.80;86.90;;;;;;4912427;29;20986;-42
2021/11/19 06:10:31;;;;;;;10.23;7.13;;;8.90;87.10;;;;;;4911685;29;20456;-42
2021/11/19 06:13:04;;;;;;;10.87;8.93;;;8.90;87.00;;;;;;4912903;29;20461;-42
2021/11/19 06:15:35;;;;;;;18.80;7.87;;;8.90;87.00;;;;;;4910576;29;20468;-42
2021/11/19 06:18:18;;;;;;;15.20;7.30;;;8.90;86.90;;;;;;4910482;29;20453;-42
2021/11/19 06:20:49;;;;;;;12.70;8.00;;;8.90;87.00;;;;;;4911576;29;20471;-42
2021/11/19 06:23:25;;;;;;;18.70;8.17;;;8.90;87.00;;;;;;4895209;29;20479;-42
2021/11/19 06:25:53;;;;;;;13.00;7.90;;;8.90;87.20;;;;;;4910827;29;20471;-42
2021/11/19 06:28:28;;;;;;;13.87;8.30;;;8.80;87.40;;;;;;4911994;29;20463;-41
2021/11/19 06:30:55;;;;;;;22.87;12.53;;;8.90;87.50;;;;;;4912782;29;20452;-41
2021/11/19 06:33:22;;;;;;;17.43;11.43;;;8.90;87.40;;;;;;4892871;29;20848;-41
2021/11/19 06:35:49;;;;;;;13.23;9.37;;;8.80;87.50;;;;;;4913207;29;20471;-41
2021/11/19 06:38:18;;;;;;;18.03;9.50;;;8.80;87.60;;;;;;4911539;29;20461;-41
2021/11/19 06:40:46;;;;;;;16.57;9.03;;;8.90;87.70;;;;;;4913477;29;20471;-42
2021/11/19 06:43:14;;;;;;;14.87;9.10;;;8.90;87.50;;;;;;4894012;29;20468;-42
2021/11/19 06:45:40;;;;;;;19.10;10.17;;;8.90;87.50;;;;;;4909846;29;20457;-42
2021/11/19 06:48:08;;;;;;;19.97;9.73;;;8.90;87.60;;;;;;4911249;29;21072;-42
2021/11/19 06:50:38;;;;;;;13.97;8.80;;;8.90;87.60;;;;;;4895612;29;20457;-43
2021/11/19 06:53:05;;;;;;;17.43;9.33;;;8.90;87.70;;;;;;4912667;29;20453;-43
2021/11/19 06:55:33;;;;;;;20.73;12.03;;;8.90;87.50;;;;;;4895019;29;20489;-42
2021/11/19 06:57:59;;;;;;;17.03;9.50;;;8.90;87.50;;;;;;4910240;29;20460;-42
2021/11/19 07:00:30;;;;;;;14.93;9.37;;;8.90;87.60;;;;;;4906061;29;20465;-42
2021/11/19 07:02:57;;;;;;;20.43;9.23;;;9.00;87.30;;;;;;4907055;29;20637;-42
2021/11/19 07:05:25;;;;;;;22.13;10.50;;;9.00;87.20;;;;;;4906647;29;20459;-42
2021/11/19 07:07:53;;;;;;;16.30;9.60;;;9.00;87.30;;;;;;4911710;29;20481;-42
2021/11/19 07:10:24;;;;;;;13.13;8.90;;;9.00;87.10;;;;;;4904826;29;20834;-42
2021/11/19 07:12:51;;;;;;;16.90;9.33;;;9.00;87.10;;;;;;4907446;29;20987;-42
2021/11/19 07:15:19;;;;;;;16.67;9.23;;;9.00;87.30;;;;;;4908921;29;20503;-42
2021/11/19 07:17:47;;;;;;;23.30;10.87;;;9.00;87.40;;;;;;4909664;29;20528;-42
2021/11/19 07:20:17;;;;;;;20.23;10.87;;;9.00;87.40;;;;;;4894597;29;20461;-42
2021/11/19 07:22:44;;;;;;;19.40;11.10;;;9.00;87.60;;;;;;4909806;29;20463;-42
2021/11/19 07:25:14;;;;;;;19.57;8.57;;;9.00;87.60;;;;;;4903719;29;20472;-42
2021/11/19 07:27:43;;;;;;;14.77;10.17;;;9.00;87.60;;;;;;4908306;29;20481;-42
2021/11/19 07:30:14;;;;;;;18.13;11.60;;;9.10;87.60;;;;;;4909392;29;20530;-42
2021/11/19 07:32:41;;;;;;;27.17;11.10;;;9.00;87.70;;;;;;4907070;29;20472;-42
2021/11/19 07:35:08;;;;;;;18.63;10.53;;;9.10;87.60;;;;;;4907304;29;20500;-42
2021/11/19 07:37:38;;;;;;;16.57;10.57;;;9.10;87.60;;;;;;4907691;29;20547;-42
2021/11/19 07:40:07;;;;;;;18.40;11.03;;;9.00;87.90;;;;;;4910111;29;20559;-42
2021/11/19 07:42:34;;;;;;;18.77;11.17;;;9.10;87.80;;;;;;4875682;29;20465;-42
2021/11/19 07:45:02;;;;;;;26.60;12.07;;;9.00;88.00;;;;;;4891144;29;20476;-42
2021/11/19 07:47:29;;;;;;;27.07;14.93;;;9.00;88.30;;;;;;4909522;29;20849;-42
2021/11/19 07:49:56;;;;;;;19.63;11.10;;;9.00;88.30;;;;;;4906799;29;20468;-42
2021/11/19 07:52:23;;;;;;;17.83;10.87;;;9.00;88.30;;;;;;4911455;29;20468;-42
2021/11/19 07:54:49;;;;;;;20.27;11.40;;;9.10;88.20;;;;;;4908503;29;20504;-42
2021/11/19 07:57:16;;;;;;;14.27;9.80;;;9.10;88.00;;;;;;4911653;29;20476;-42
2021/11/19 07:59:43;;;;;;;16.67;10.37;;;9.10;88.20;;;;;;4897302;29;20461;-42
2021/11/19 08:02:10;;;;;;;15.43;10.50;;;9.00;88.50;;;;;;4911528;29;20484;-42
2021/11/19 08:04:37;;;;;;;19.37;11.83;;;9.10;88.50;;;;;;4910622;29;20889;-42
2021/11/19 08:07:06;;;;;;;22.83;11.00;;;9.10;88.50;;;;;;4894609;29;20460;-42
2021/11/19 08:09:33;;;;;;;18.00;11.10;;;9.10;88.50;;;;;;4911251;29;20480;-42
2021/11/19 08:12:03;;;;;;;17.57;10.43;;;9.10;88.60;;;;;;4911842;29;20536;-42
2021/11/19 08:14:31;;;;;;;19.20;11.23;;;9.10;88.40;;;;;;4907840;29;21035;-42
2021/11/19 08:17:01;;;;;;;19.53;11.57;;;9.10;88.50;;;;;;4904901;29;20465;-42
2021/11/19 08:19:33;;;;;;;19.97;11.20;;;9.10;88.50;;;;;;4907291;29;20461;-42
2021/11/19 08:22:01;;;;;;;20.87;12.00;;;9.10;88.60;;;;;;4907981;29;20461;-42
2021/11/19 08:24:29;;;;;;;14.87;9.63;;;9.10;88.60;;;;;;4907380;29;20548;-42
2021/11/19 08:27:06;;;;;;;22.90;12.40;;;9.20;88.40;;;;;;4906969;29;20465;-42
2021/11/19 08:29:35;;;;;;;19.70;10.80;;;9.20;88.30;;;;;;4908642;29;20487;-42
2021/11/19 08:32:04;;;;;;;19.97;10.83;;;9.20;88.50;;;;;;4905481;29;20504;-41
2021/11/19 08:34:31;;;;;;;17.60;10.80;;;9.20;88.70;;;;;;4903823;29;20496;-41
2021/11/19 08:37:00;;;;;;;21.47;12.57;;;9.20;88.80;;;;;;4894466;29;20453;-41
2021/11/19 08:39:28;;;;;;;17.47;11.30;;;9.20;88.90;;;;;;4911612;29;20981;-42
2021/11/19 08:41:56;;;;;;;21.33;10.40;;;9.30;88.90;;;;;;4911769;29;20633;-41
2021/11/19 08:44:24;;;;;;;18.67;10.80;;;9.30;88.80;;;;;;4912417;29;20945;-42
2021/11/19 08:47:12;;;;;;;19.13;9.50;;;9.30;88.90;;;;;;4910962;29;20453;-42
2021/11/19 08:49:39;;;;;;;23.10;11.63;;;9.40;88.70;;;;;;4893711;29;20610;-42
2021/11/19 08:52:10;;;;;;;16.83;11.00;;;9.40;88.60;;;;;;4911753;29;20472;-42
2021/11/19 08:54:38;;;;;;;16.80;10.13;;;9.40;88.60;;;;;;4911230;29;20863;-42
2021/11/19 08:57:08;;;;;;;20.00;10.17;;;9.50;88.80;;;;;;4895046;29;20472;-41
2021/11/19 08:59:37;;;;;;;19.77;10.80;;;9.50;88.70;;;;;;4911664;29;20488;-42
2021/11/19 09:02:07;;;;;;;18.10;10.60;;;9.50;88.70;;;;;;4910990;29;20940;-41
2021/11/19 09:04:55;;;;;;;15.63;9.57;;;9.60;88.60;;;;;;4911095;29;20457;-41
2021/11/19 09:07:22;;;;;;;17.97;12.23;;;9.70;88.30;;;;;;4910397;29;20478;-42
2021/11/19 09:09:50;;;;;;;17.33;10.97;;;9.80;88.00;;;;;;4907249;29;20479;-42
2021/11/19 09:12:17;;;;;;;14.37;8.87;;;9.80;88.00;;;;;;4890215;29;20555;-42
2021/11/19 09:14:44;;;;;;;13.13;8.13;;;9.80;87.80;;;;;;4903818;29;20607;-42
2021/11/19 09:17:24;;;;;;;16.10;10.23;;;9.90;87.80;;;;;;4907182;29;20471;-42
2021/11/19 09:19:57;;;;;;;10.47;7.40;;;9.90;87.70;;;;;;4906471;29;21020;-42
2021/11/19 09:22:34;;;;;;;16.20;8.80;;;10.00;87.00;;;;;;4889007;29;20488;-42
2021/11/19 09:25:08;;;;;;;12.43;9.00;;;10.00;86.70;;;;;;4906456;29;20560;-42
2021/11/19 09:27:36;;;;;;;15.33;9.33;;;10.00;86.80;;;;;;4890098;29;20539;-42
2021/11/19 09:30:16;;;;;;;11.90;9.80;;;10.00;87.20;;;;;;4909696;29;20513;-41
2021/11/19 09:32:49;;;;;;;9.97;8.03;;;10.10;86.80;;;;;;4909600;29;20496;-41
2021/11/19 09:35:20;;;;;;;12.47;7.20;;;10.20;86.40;;;;;;4909738;29;20607;-41
2021/11/19 09:37:49;;;;;;;14.57;8.30;;;10.10;86.50;;;;;;4888151;29;20892;-41
2021/11/19 09:40:19;;;;;;;16.73;8.60;;;10.20;86.70;;;;;;4905339;29;20559;-41
2021/11/19 09:43:07;;;;;;;13.70;7.70;;;10.20;86.60;;;;;;4911737;29;20456;-42
2021/11/19 09:46:23;;;;;;;10.73;8.10;;;10.20;86.20;;;;;;4909124;29;20504;-42
2021/11/19 09:48:53;;;;;;;9.60;7.10;;;10.30;85.70;;;;;;4906607;29;20473;-42
2021/11/19 09:51:51;;;;;;;10.97;7.47;;;10.30;85.60;;;;;;4908435;29;20457;-42
2021/11/19 09:54:48;;;;;;;11.93;7.20;;;10.40;85.10;;;;;;4909451;29;20999;-42
2021/11/19 09:57:20;;;;;;;10.33;7.17;;;10.40;85.20;;;;;;4893253;29;20464;-43
2021/11/19 09:59:58;;;;;;;16.60;7.60;;;10.40;85.40;;;;;;4907938;29;20469;-43
2021/11/19 10:03:03;;;;;;;16.73;7.90;;;10.40;85.60;;;;;;4907582;29;20468;-43
2021/11/19 10:05:45;;;;;;;10.47;7.23;;;10.40;85.50;;;;;;4907317;29;20560;-43
2021/11/19 10:08:48;;;;;;;8.67;6.60;;;10.50;85.40;;;;;;4909979;29;20476;-43
2021/11/19 10:11:50;;;;;;;10.60;6.77;;;10.50;85.30;;;;;;4893506;29;20817;-43
2021/11/19 10:14:30;;;;;;;9.13;5.73;;;10.50;85.30;;;;;;4909688;29;20855;-43
2021/11/19 10:17:12;;;;;;;8.13;4.90;;;10.60;85.10;;;;;;4910458;29;20458;-42
2021/11/19 10:20:03;;;;;;;7.60;5.83;;;10.60;85.00;;;;;;4909030;29;20566;-42
2021/11/19 10:22:35;;;;;;;8.03;5.30;;;10.70;84.00;;;;;;4911942;29;20461;-43
2021/11/19 10:25:19;;;;;;;8.07;6.33;;;10.60;84.60;;;;;;4913889;29;20515;-42
2021/11/19 10:27:50;;;;;;;7.20;5.40;;;10.60;84.80;;;;;;4911750;29;21003;-43
2021/11/19 10:30:28;;;;;;;7.93;5.17;;;10.60;84.90;;;;;;4895488;29;20475;-43
2021/11/19 10:33:13;;;;;;;5.43;4.13;;;10.70;85.10;;;;;;4910314;29;20475;-42
2021/11/19 10:35:57;;;;;;;5.33;4.80;;;10.80;84.40;;;;;;4913551;29;20496;-42
2021/11/19 10:38:48;;;;;;;9.07;5.10;;;10.90;84.20;;;;;;4912421;29;20913;-42
2021/11/19 10:41:53;;;;;;;6.10;4.17;;;10.90;84.00;;;;;;4893024;29;20832;-42
2021/11/19 10:44:42;;;;;;;4.50;3.70;;;11.00;83.60;;;;;;4907487;29;20474;-42
2021/11/19 10:47:18;;;;;;;6.90;3.77;;;11.10;83.10;;;;;;4914008;29;20580;-42
2021/11/19 10:49:57;;;;;;;5.30;3.83;;;11.10;83.20;;;;;;4913152;29;20448;-42
2021/11/19 10:52:35;;;;;;;4.50;3.37;;;11.10;82.90;;;;;;4913427;29;20452;-42
2021/11/19 10:55:38;;;;;;;4.10;3.47;;;11.20;82.70;;;;;;4913014;29;21231;-42
2021/11/19 10:58:05;;;;;;;3.40;3.00;;;11.20;82.20;;;;;;4896844;29;20457;-42
2021/11/19 11:00:55;;;;;;;4.10;2.87;;;11.20;82.60;;;;;;4899945;29;20504;-42
2021/11/19 11:03:27;;;;;;;3.60;3.03;;;11.30;82.30;;;;;;4911540;29;20569;-42
2021/11/19 11:06:02;;;;;;;4.93;3.80;;;11.30;82.30;;;;;;4895824;29;20457;-46
2021/11/19 11:08:35;;;;;;;3.50;2.80;;;11.30;82.10;;;;;;4908979;29;20476;-43
2021/11/19 11:11:20;;;;;;;4.97;3.40;;;11.30;81.70;;;;;;4893355;29;20462;-42
2021/11/19 11:14:02;;;;;;;3.10;2.80;;;11.30;81.80;;;;;;4911589;29;20516;-42
2021/11/19 11:16:38;;;;;;;4.73;3.40;;;11.30;81.60;;;;;;4911976;29;20492;-42
2021/11/19 11:19:25;;;;;;;3.50;3.10;;;11.20;81.80;;;;;;4893325;29;20452;-42
2021/11/19 11:21:58;;;;;;;3.37;3.00;;;11.20;82.40;;;;;;4911764;29;20468;-42
2021/11/19 11:24:37;;;;;;;4.37;3.97;;;11.20;82.30;;;;;;4909577;29;20525;-43
2021/11/19 11:27:52;;;;;;;3.80;3.27;;;11.10;82.50;;;;;;4908186;29;20452;-42
2021/11/19 11:30:24;;;;;;;3.10;2.80;;;11.20;82.50;;;;;;4905477;29;20949;-41
2021/11/19 11:32:59;;;;;;;2.20;2.00;;;11.20;82.20;;;;;;4906584;29;20492;-42
2021/11/19 11:35:37;;;;;;;2.87;2.57;;;11.20;82.10;;;;;;4906427;29;21027;-41
2021/11/19 11:38:07;;;;;;;4.70;2.77;;;11.20;82.30;;;;;;4907288;29;20453;-41
2021/11/19 11:40:39;;;;;;;5.43;2.93;;;11.20;82.30;;;;;;4908075;29;20472;-42
2021/11/19 11:43:37;;;;;;;7.70;4.93;;;11.20;82.30;;;;;;4906113;29;20980;-42
2021/11/19 11:46:18;;;;;;;4.53;3.40;;;11.20;82.30;;;;;;4891049;29;20476;-41
2021/11/19 11:49:08;;;;;;;3.23;2.87;;;11.20;82.50;;;;;;4911580;29;21154;-41
2021/11/19 11:51:55;;;;;;;3.20;2.67;;;11.30;82.30;;;;;;4902994;29;20941;-41
2021/11/19 11:54:31;;;;;;;3.73;2.93;;;11.30;82.40;;;;;;4910943;29;20461;-41
2021/11/19 11:57:20;;;;;;;6.80;3.50;;;11.40;82.50;;;;;;4908802;29;20491;-41
2021/11/19 11:59:53;;;;;;;2.83;2.63;;;11.40;82.70;;;;;;4911211;29;20449;-41
2021/11/19 12:02:39;;;;;;;3.87;2.50;;;11.40;81.90;;;;;;4909399;29;20479;-41
2021/11/19 12:05:27;;;;;;;5.33;3.90;;;11.40;82.10;;;;;;4907132;29;20481;-41
2021/11/19 12:08:13;;;;;;;4.40;3.87;;;11.40;82.10;;;;;;4893570;29;20477;-42
2021/11/19 12:11:01;;;;;;;4.10;3.40;;;11.50;82.00;;;;;;4907471;29;20969;-42
2021/11/19 12:13:52;;;;;;;4.50;3.63;;;11.50;81.90;;;;;;4910920;29;20471;-43
2021/11/19 12:16:28;;;;;;;3.63;3.33;;;11.40;82.20;;;;;;4897714;29;20535;-43
2021/11/19 12:19:02;;;;;;;4.30;3.83;;;11.50;82.00;;;;;;4908357;29;20464;-42
2021/11/19 12:21:35;;;;;;;4.10;3.57;;;11.50;82.00;;;;;;4895274;29;20469;-42
2021/11/19 12:24:29;;;;;;;4.27;2.80;;;11.50;82.10;;;;;;4890527;29;20837;-42
2021/11/19 12:27:04;;;;;;;5.73;2.40;;;11.50;81.40;;;;;;4891118;29;20449;-42
2021/11/19 12:29:40;;;;;;;2.63;2.43;;;11.50;81.50;;;;;;4895636;29;20456;-42
2021/11/19 12:32:21;;;;;;;4.70;2.60;;;11.50;81.70;;;;;;4907074;29;20457;-42
2021/11/19 12:34:50;;;;;;;3.90;2.47;;;11.50;81.90;;;;;;4908913;29;20449;-42
2021/11/19 12:37:36;;;;;;;3.73;2.37;;;11.50;82.00;;;;;;4912700;29;20445;-42
2021/11/19 12:40:46;;;;;;;3.27;2.53;;;11.50;81.50;;;;;;4905482;29;20461;-42
2021/11/19 12:43:49;;;;;;;3.10;2.67;;;11.50;81.60;;;;;;4867131;29;20469;-42
2021/11/19 12:46:53;;;;;;;2.80;2.50;;;11.50;81.80;;;;;;4894313;29;20580;-42
2021/11/19 12:49:48;;;;;;;3.63;3.20;;;11.50;81.40;;;;;;4905016;29;20461;-43
2021/11/19 12:52:41;;;;;;;3.20;2.57;;;11.50;81.70;;;;;;4905397;29;21049;-43
2021/11/19 12:55:26;;;;;;;3.13;2.50;;;11.50;82.00;;;;;;4906735;29;20501;-42
2021/11/19 12:58:15;;;;;;;3.70;2.07;;;11.50;81.70;;;;;;4909199;29;20463;-42
2021/11/19 13:01:01;;;;;;;3.30;3.00;;;11.50;81.80;;;;;;4911453;29;20980;-42
2021/11/19 13:04:00;;;;;;;2.60;2.40;;;11.50;81.90;;;;;;4906013;29;20464;-42
2021/11/19 13:06:38;;;;;;;2.23;2.03;;;11.60;82.00;;;;;;4910443;29;20464;-42
2021/11/19 13:09:14;;;;;;;3.70;2.00;;;11.60;81.70;;;;;;4910974;29;21024;-42
2021/11/19 13:12:03;;;;;;;1.93;1.70;;;11.60;81.40;;;;;;4909907;29;20956;-42
2021/11/19 13:14:33;;;;;;;2.57;2.37;;;11.60;81.40;;;;;;4906998;29;20465;-42
2021/11/19 13:17:03;;;;;;;2.17;2.07;;;11.60;81.30;;;;;;4907048;29;20596;-42
2021/11/19 13:19:30;;;;;;;2.00;1.90;;;11.60;81.30;;;;;;4890883;29;20544;-43